sensor_id;sensor_type;location;lat;lon;timestamp;temperature;humidity
42201;DHT22;27869;51.442;7.540;2023-09-18T00:00:29;18.20;99.90
42201;DHT22;27869;51.442;7.540;2023-09-18T00:02:58;18.20;99.90
42201;DHT22;27869;51.442;7.540;2023-09-18T00:05:30;18.20;99.90
42201;DHT22;27869;51.442;7.540;2023-09-18T00:07:57;18.20;99.90
42201;DHT22;27869;51.442;7.540;2023-09-18T00:10:26;18.20;99.90
42201;DHT22;27869;51.442;7.540;2023-09-18T00:12:54;18.20;99.90
42201;DHT22;27869;51.442;7.540;2023-09-18T00:15:21;18.20;99.90
42201;DHT22;27869;51.442;7.540;2023-09-18T00:17:48;18.20;99.90
42201;DHT22;27869;51.442;7.540;2023-09-18T00:20:15;18.20;99.90
42201;DHT22;27869;51.442;7.540;2023-09-18T00:22:44;18.10;99.90
42201;DHT22;27869;51.442;7.540;2023-09-18T00:25:11;18.10;99.90
42201;DHT22;27869;51.442;7.540;2023-09-18T00:27:40;18.10;99.90
42201;DHT22;27869;51.442;7.540;2023-09-18T00:30:07;18.10;99.90
42201;DHT22;27869;51.442;7.540;2023-09-18T00:32:34;18.10;99.90
42201;DHT22;27869;51.442;7.540;2023-09-18T00:35:01;18.00;99.90
42201;DHT22;27869;51.442;7.540;2023-09-18T00:37:28;18.00;99.90
42201;DHT22;27869;51.442;7.540;2023-09-18T00:39:56;18.00;99.90
42201;DHT22;27869;51.442;7.540;2023-09-18T00:42:24;18.00;99.90
42201;DHT22;27869;51.442;7.540;2023-09-18T00:44:50;18.00;99.90
42201;DHT22;27869;51.442;7.540;2023-09-18T00:47:17;18.00;99.90
42201;DHT22;27869;51.442;7.540;2023-09-18T00:49:48;17.90;99.90
42201;DHT22;27869;51.442;7.540;2023-09-18T00:52:17;17.90;99.90
42201;DHT22;27869;51.442;7.540;2023-09-18T00:54:45;17.90;99.90
42201;DHT22;27869;51.442;7.540;2023-09-18T00:57:14;17.90;99.90
42201;DHT22;27869;51.442;7.540;2023-09-18T00:59:41;17.90;99.90
42201;DHT22;27869;51.442;7.540;2023-09-18T01:02:08;17.90;99.90
42201;DHT22;27869;51.442;7.540;2023-09-18T01:04:35;17.90;99.90
42201;DHT22;27869;51.442;7.540;2023-09-18T01:07:04;17.80;99.90
42201;DHT22;27869;51.442;7.540;2023-09-18T01:09:31;17.80;99.90
42201;DHT22;27869;51.442;7.540;2023-09-18T01:12:04;17.80;99.90
42201;DHT22;27869;51.442;7.540;2023-09-18T01:14:39;17.80;99.90
42201;DHT22;27869;51.442;7.540;2023-09-18T01:17:09;17.80;99.90
42201;DHT22;27869;51.442;7.540;2023-09-18T01:19:40;17.80;99.90
42201;DHT22;27869;51.442;7.540;2023-09-18T01:22:08;17.70;99.90
42201;DHT22;27869;51.442;7.540;2023-09-18T01:24:38;17.70;99.90
42201;DHT22;27869;51.442;7.540;2023-09-18T01:27:07;17.70;99.90
42201;DHT22;27869;51.442;7.540;2023-09-18T01:29:34;17.70;99.90
42201;DHT22;27869;51.442;7.540;2023-09-18T01:32:01;17.70;99.90
42201;DHT22;27869;51.442;7.540;2023-09-18T01:34:32;17.70;99.90
42201;DHT22;27869;51.442;7.540;2023-09-18T01:37:02;17.70;99.90
42201;DHT22;27869;51.442;7.540;2023-09-18T01:39:31;17.70;99.90
42201;DHT22;27869;51.442;7.540;2023-09-18T01:42:01;17.70;99.90
42201;DHT22;27869;51.442;7.540;2023-09-18T01:44:29;17.60;99.90
42201;DHT22;27869;51.442;7.540;2023-09-18T01:46:58;17.60;99.90
42201;DHT22;27869;51.442;7.540;2023-09-18T01:49:29;17.60;99.90
42201;DHT22;27869;51.442;7.540;2023-09-18T01:51:56;17.60;99.90
42201;DHT22;27869;51.442;7.540;2023-09-18T01:54:23;17.60;99.90
42201;DHT22;27869;51.442;7.540;2023-09-18T01:56:50;17.60;99.90
42201;DHT22;27869;51.442;7.540;2023-09-18T01:59:19;17.60;99.90
42201;DHT22;27869;51.442;7.540;2023-09-18T02:01:46;17.60;99.90
42201;DHT22;27869;51.442;7.540;2023-09-18T02:04:13;17.60;99.90
42201;DHT22;27869;51.442;7.540;2023-09-18T02:06:40;17.60;99.90
42201;DHT22;27869;51.442;7.540;2023-09-18T02:09:07;17.60;99.90
42201;DHT22;27869;51.442;7.540;2023-09-18T02:11:35;17.60;99.90
42201;DHT22;27869;51.442;7.540;2023-09-18T02:14:03;17.70;99.90
42201;DHT22;27869;51.442;7.540;2023-09-18T02:16:32;17.70;99.90
42201;DHT22;27869;51.442;7.540;2023-09-18T02:19:00;17.70;99.90
42201;DHT22;27869;51.442;7.540;2023-09-18T02:21:26;17.80;99.90
42201;DHT22;27869;51.442;7.540;2023-09-18T02:23:54;17.80;99.90
42201;DHT22;27869;51.442;7.540;2023-09-18T02:26:22;17.70;99.90
42201;DHT22;27869;51.442;7.540;2023-09-18T02:28:51;17.80;99.90
42201;DHT22;27869;51.442;7.540;2023-09-18T02:31:18;17.80;99.90
42201;DHT22;27869;51.442;7.540;2023-09-18T02:33:46;17.80;99.90
42201;DHT22;27869;51.442;7.540;2023-09-18T02:36:13;17.80;99.90
42201;DHT22;27869;51.442;7.540;2023-09-18T02:38:40;17.80;99.90
42201;DHT22;27869;51.442;7.540;2023-09-18T02:41:06;17.80;99.90
42201;DHT22;27869;51.442;7.540;2023-09-18T02:43:33;17.80;99.90
42201;DHT22;27869;51.442;7.540;2023-09-18T02:46:00;17.90;99.90
42201;DHT22;27869;51.442;7.540;2023-09-18T02:48:27;17.90;99.90
42201;DHT22;27869;51.442;7.540;2023-09-18T02:50:55;17.90;99.90
42201;DHT22;27869;51.442;7.540;2023-09-18T02:53:23;17.90;99.90
42201;DHT22;27869;51.442;7.540;2023-09-18T02:55:52;17.90;99.90
42201;DHT22;27869;51.442;7.540;2023-09-18T02:58:20;17.90;99.90
42201;DHT22;27869;51.442;7.540;2023-09-18T03:00:48;18.00;99.90
42201;DHT22;27869;51.442;7.540;2023-09-18T03:03:15;18.00;99.90
42201;DHT22;27869;51.442;7.540;2023-09-18T03:05:43;18.10;99.90
42201;DHT22;27869;51.442;7.540;2023-09-18T03:08:13;18.10;99.90
42201;DHT22;27869;51.442;7.540;2023-09-18T03:10:41;18.20;99.90
42201;DHT22;27869;51.442;7.540;2023-09-18T03:13:10;18.30;99.90
42201;DHT22;27869;51.442;7.540;2023-09-18T03:15:37;18.20;99.90
42201;DHT22;27869;51.442;7.540;2023-09-18T03:18:07;18.20;99.90
42201;DHT22;27869;51.442;7.540;2023-09-18T03:20:33;18.30;99.90
42201;DHT22;27869;51.442;7.540;2023-09-18T03:23:01;18.40;99.90
42201;DHT22;27869;51.442;7.540;2023-09-18T03:25:31;18.40;99.90
42201;DHT22;27869;51.442;7.540;2023-09-18T03:27:58;18.40;99.90
42201;DHT22;27869;51.442;7.540;2023-09-18T03:30:26;18.50;99.90
42201;DHT22;27869;51.442;7.540;2023-09-18T03:32:53;18.40;99.90
42201;DHT22;27869;51.442;7.540;2023-09-18T03:35:20;18.40;99.90
42201;DHT22;27869;51.442;7.540;2023-09-18T03:37:49;18.40;99.90
42201;DHT22;27869;51.442;7.540;2023-09-18T03:40:17;18.40;99.90
42201;DHT22;27869;51.442;7.540;2023-09-18T03:42:46;18.40;99.90
42201;DHT22;27869;51.442;7.540;2023-09-18T03:45:13;18.50;99.90
42201;DHT22;27869;51.442;7.540;2023-09-18T03:47:41;18.50;99.90
42201;DHT22;27869;51.442;7.540;2023-09-18T03:50:09;18.50;99.90
42201;DHT22;27869;51.442;7.540;2023-09-18T03:52:37;18.60;99.90
42201;DHT22;27869;51.442;7.540;2023-09-18T03:55:06;18.60;99.90
42201;DHT22;27869;51.442;7.540;2023-09-18T03:57:33;18.60;99.90
42201;DHT22;27869;51.442;7.540;2023-09-18T04:00:03;18.70;99.90
42201;DHT22;27869;51.442;7.540;2023-09-18T04:02:30;18.70;99.90
42201;DHT22;27869;51.442;7.540;2023-09-18T04:04:57;18.70;99.90
42201;DHT22;27869;51.442;7.540;2023-09-18T04:07:23;18.70;99.90
42201;DHT22;27869;51.442;7.540;2023-09-18T04:09:50;18.80;99.90
42201;DHT22;27869;51.442;7.540;2023-09-18T04:12:17;18.80;99.90
42201;DHT22;27869;51.442;7.540;2023-09-18T04:14:44;18.80;99.90
42201;DHT22;27869;51.442;7.540;2023-09-18T04:17:12;18.80;99.90
42201;DHT22;27869;51.442;7.540;2023-09-18T04:19:39;18.90;99.90
42201;DHT22;27869;51.442;7.540;2023-09-18T04:22:06;18.90;99.90
42201;DHT22;27869;51.442;7.540;2023-09-18T04:24:33;18.90;99.90
42201;DHT22;27869;51.442;7.540;2023-09-18T04:27:00;19.00;99.90
42201;DHT22;27869;51.442;7.540;2023-09-18T04:29:27;19.00;99.90
42201;DHT22;27869;51.442;7.540;2023-09-18T04:31:54;19.00;99.90
42201;DHT22;27869;51.442;7.540;2023-09-18T04:34:22;19.10;99.90
42201;DHT22;27869;51.442;7.540;2023-09-18T04:36:49;19.10;99.90
42201;DHT22;27869;51.442;7.540;2023-09-18T04:39:16;19.20;99.90
42201;DHT22;27869;51.442;7.540;2023-09-18T04:41:43;19.30;99.90
42201;DHT22;27869;51.442;7.540;2023-09-18T04:44:10;19.30;99.90
42201;DHT22;27869;51.442;7.540;2023-09-18T04:46:38;19.40;99.90
42201;DHT22;27869;51.442;7.540;2023-09-18T04:49:07;19.40;99.90
42201;DHT22;27869;51.442;7.540;2023-09-18T04:51:38;19.50;99.90
42201;DHT22;27869;51.442;7.540;2023-09-18T04:54:07;19.50;99.90
42201;DHT22;27869;51.442;7.540;2023-09-18T04:56:33;19.60;99.90
42201;DHT22;27869;51.442;7.540;2023-09-18T04:59:00;19.60;99.90
42201;DHT22;27869;51.442;7.540;2023-09-18T05:01:27;19.70;99.90
42201;DHT22;27869;51.442;7.540;2023-09-18T05:03:55;19.70;99.90
42201;DHT22;27869;51.442;7.540;2023-09-18T05:06:22;19.80;99.90
42201;DHT22;27869;51.442;7.540;2023-09-18T05:08:50;19.80;99.90
42201;DHT22;27869;51.442;7.540;2023-09-18T05:11:18;19.80;99.90
42201;DHT22;27869;51.442;7.540;2023-09-18T05:13:46;19.80;99.90
42201;DHT22;27869;51.442;7.540;2023-09-18T05:16:13;19.90;99.90
42201;DHT22;27869;51.442;7.540;2023-09-18T05:18:40;19.90;99.90
42201;DHT22;27869;51.442;7.540;2023-09-18T05:21:08;19.90;99.90
42201;DHT22;27869;51.442;7.540;2023-09-18T05:23:35;19.90;99.90
42201;DHT22;27869;51.442;7.540;2023-09-18T05:26:03;19.90;99.90
42201;DHT22;27869;51.442;7.540;2023-09-18T05:28:30;19.90;99.90
42201;DHT22;27869;51.442;7.540;2023-09-18T05:30:57;19.90;99.90
42201;DHT22;27869;51.442;7.540;2023-09-18T05:33:24;19.90;99.90
42201;DHT22;27869;51.442;7.540;2023-09-18T05:35:51;19.90;99.90
42201;DHT22;27869;51.442;7.540;2023-09-18T05:38:18;20.00;99.90
42201;DHT22;27869;51.442;7.540;2023-09-18T05:40:44;20.00;99.90
42201;DHT22;27869;51.442;7.540;2023-09-18T05:43:14;20.00;99.90
42201;DHT22;27869;51.442;7.540;2023-09-18T05:45:41;20.00;99.90
42201;DHT22;27869;51.442;7.540;2023-09-18T05:48:07;20.00;99.90
42201;DHT22;27869;51.442;7.540;2023-09-18T05:50:35;20.00;99.90
42201;DHT22;27869;51.442;7.540;2023-09-18T05:53:02;20.00;99.90
42201;DHT22;27869;51.442;7.540;2023-09-18T05:55:30;20.00;99.90
42201;DHT22;27869;51.442;7.540;2023-09-18T05:57:57;20.00;99.90
42201;DHT22;27869;51.442;7.540;2023-09-18T06:00:26;20.00;99.90
42201;DHT22;27869;51.442;7.540;2023-09-18T06:02:53;20.00;99.90
42201;DHT22;27869;51.442;7.540;2023-09-18T06:05:19;20.00;99.90
42201;DHT22;27869;51.442;7.540;2023-09-18T06:07:48;20.00;99.90
42201;DHT22;27869;51.442;7.540;2023-09-18T06:10:15;20.00;99.90
42201;DHT22;27869;51.442;7.540;2023-09-18T06:12:43;20.00;99.90
42201;DHT22;27869;51.442;7.540;2023-09-18T06:15:10;20.10;99.90
42201;DHT22;27869;51.442;7.540;2023-09-18T06:17:40;20.00;99.90
42201;DHT22;27869;51.442;7.540;2023-09-18T06:20:08;20.10;99.90
42201;DHT22;27869;51.442;7.540;2023-09-18T06:22:36;20.10;99.90
42201;DHT22;27869;51.442;7.540;2023-09-18T06:25:04;20.10;99.90
42201;DHT22;27869;51.442;7.540;2023-09-18T06:27:33;20.10;99.90
42201;DHT22;27869;51.442;7.540;2023-09-18T06:30:00;20.10;99.90
42201;DHT22;27869;51.442;7.540;2023-09-18T06:32:27;20.10;99.90
42201;DHT22;27869;51.442;7.540;2023-09-18T06:34:55;20.10;99.90
42201;DHT22;27869;51.442;7.540;2023-09-18T06:37:23;20.10;99.90
42201;DHT22;27869;51.442;7.540;2023-09-18T06:39:50;20.10;99.90
42201;DHT22;27869;51.442;7.540;2023-09-18T06:42:17;20.10;99.90
42201;DHT22;27869;51.442;7.540;2023-09-18T06:44:44;20.10;99.90
42201;DHT22;27869;51.442;7.540;2023-09-18T06:47:11;20.10;99.90
42201;DHT22;27869;51.442;7.540;2023-09-18T06:49:38;20.20;99.90
42201;DHT22;27869;51.442;7.540;2023-09-18T06:52:08;20.20;99.90
42201;DHT22;27869;51.442;7.540;2023-09-18T06:54:35;20.20;99.90
42201;DHT22;27869;51.442;7.540;2023-09-18T06:57:02;20.20;99.90
42201;DHT22;27869;51.442;7.540;2023-09-18T06:59:29;20.20;99.90
42201;DHT22;27869;51.442;7.540;2023-09-18T07:01:57;20.20;99.90
42201;DHT22;27869;51.442;7.540;2023-09-18T07:04:24;20.20;99.90
42201;DHT22;27869;51.442;7.540;2023-09-18T07:06:51;20.20;99.90
42201;DHT22;27869;51.442;7.540;2023-09-18T07:09:20;20.30;99.90
42201;DHT22;27869;51.442;7.540;2023-09-18T07:11:48;20.30;99.90
42201;DHT22;27869;51.442;7.540;2023-09-18T07:14:16;20.30;99.90
42201;DHT22;27869;51.442;7.540;2023-09-18T07:16:43;20.30;99.90
42201;DHT22;27869;51.442;7.540;2023-09-18T07:19:09;20.30;99.90
42201;DHT22;27869;51.442;7.540;2023-09-18T07:21:42;20.40;99.90
42201;DHT22;27869;51.442;7.540;2023-09-18T07:24:09;20.40;99.90
42201;DHT22;27869;51.442;7.540;2023-09-18T07:26:44;20.40;99.90
42201;DHT22;27869;51.442;7.540;2023-09-18T07:29:11;20.40;99.90
42201;DHT22;27869;51.442;7.540;2023-09-18T07:31:38;20.40;99.90
42201;DHT22;27869;51.442;7.540;2023-09-18T07:34:06;20.40;99.90
42201;DHT22;27869;51.442;7.540;2023-09-18T07:36:33;20.50;99.90
42201;DHT22;27869;51.442;7.540;2023-09-18T07:38:59;20.50;99.90
42201;DHT22;27869;51.442;7.540;2023-09-18T07:41:26;20.50;99.90
42201;DHT22;27869;51.442;7.540;2023-09-18T07:43:54;20.50;99.90
42201;DHT22;27869;51.442;7.540;2023-09-18T07:46:23;20.50;99.90
42201;DHT22;27869;51.442;7.540;2023-09-18T07:48:50;20.50;99.90
42201;DHT22;27869;51.442;7.540;2023-09-18T07:51:20;20.50;99.90
42201;DHT22;27869;51.442;7.540;2023-09-18T07:53:47;20.60;99.90
42201;DHT22;27869;51.442;7.540;2023-09-18T07:56:14;20.60;99.90
42201;DHT22;27869;51.442;7.540;2023-09-18T07:58:40;20.60;99.90
42201;DHT22;27869;51.442;7.540;2023-09-18T08:01:09;20.60;99.90
42201;DHT22;27869;51.442;7.540;2023-09-18T08:03:35;20.60;99.90
42201;DHT22;27869;51.442;7.540;2023-09-18T08:06:02;20.70;99.90
42201;DHT22;27869;51.442;7.540;2023-09-18T08:08:31;20.70;99.90
42201;DHT22;27869;51.442;7.540;2023-09-18T08:11:06;20.70;99.90
42201;DHT22;27869;51.442;7.540;2023-09-18T08:13:34;20.80;99.90
42201;DHT22;27869;51.442;7.540;2023-09-18T08:16:01;20.80;99.90
42201;DHT22;27869;51.442;7.540;2023-09-18T08:18:30;20.80;99.90
42201;DHT22;27869;51.442;7.540;2023-09-18T08:20:57;20.80;99.90
42201;DHT22;27869;51.442;7.540;2023-09-18T08:23:24;20.80;99.90
42201;DHT22;27869;51.442;7.540;2023-09-18T08:25:51;20.80;99.90
42201;DHT22;27869;51.442;7.540;2023-09-18T08:28:23;20.80;99.90
42201;DHT22;27869;51.442;7.540;2023-09-18T08:30:49;20.90;99.90
42201;DHT22;27869;51.442;7.540;2023-09-18T08:33:16;20.90;99.90
42201;DHT22;27869;51.442;7.540;2023-09-18T08:35:44;21.00;99.90
42201;DHT22;27869;51.442;7.540;2023-09-18T08:38:12;21.00;99.90
42201;DHT22;27869;51.442;7.540;2023-09-18T08:40:40;21.10;99.90
42201;DHT22;27869;51.442;7.540;2023-09-18T08:43:08;21.10;99.90
42201;DHT22;27869;51.442;7.540;2023-09-18T08:45:43;21.10;99.90
42201;DHT22;27869;51.442;7.540;2023-09-18T08:48:11;21.10;99.90
42201;DHT22;27869;51.442;7.540;2023-09-18T08:50:39;21.10;99.90
42201;DHT22;27869;51.442;7.540;2023-09-18T08:53:08;21.10;99.90
42201;DHT22;27869;51.442;7.540;2023-09-18T08:55:35;21.10;99.90
42201;DHT22;27869;51.442;7.540;2023-09-18T08:58:02;21.10;99.90
42201;DHT22;27869;51.442;7.540;2023-09-18T09:00:30;21.10;99.90
42201;DHT22;27869;51.442;7.540;2023-09-18T09:02:59;21.10;99.90
42201;DHT22;27869;51.442;7.540;2023-09-18T09:05:27;21.10;99.90
42201;DHT22;27869;51.442;7.540;2023-09-18T09:07:55;21.10;99.90
42201;DHT22;27869;51.442;7.540;2023-09-18T09:10:23;21.20;99.90
42201;DHT22;27869;51.442;7.540;2023-09-18T09:12:54;21.20;99.90
42201;DHT22;27869;51.442;7.540;2023-09-18T09:15:22;21.20;99.90
42201;DHT22;27869;51.442;7.540;2023-09-18T09:17:50;21.20;99.90
42201;DHT22;27869;51.442;7.540;2023-09-18T09:20:17;21.20;99.90
42201;DHT22;27869;51.442;7.540;2023-09-18T09:22:45;21.30;99.90
42201;DHT22;27869;51.442;7.540;2023-09-18T09:25:26;21.30;99.90
42201;DHT22;27869;51.442;7.540;2023-09-18T09:27:54;21.40;99.90
42201;DHT22;27869;51.442;7.540;2023-09-18T09:30:23;21.50;99.90
42201;DHT22;27869;51.442;7.540;2023-09-18T09:32:51;21.60;99.90
42201;DHT22;27869;51.442;7.540;2023-09-18T09:35:23;21.60;99.90
42201;DHT22;27869;51.442;7.540;2023-09-18T09:37:53;21.70;99.90
42201;DHT22;27869;51.442;7.540;2023-09-18T09:40:22;21.80;99.90
42201;DHT22;27869;51.442;7.540;2023-09-18T09:42:53;21.90;99.90
42201;DHT22;27869;51.442;7.540;2023-09-18T09:45:26;22.00;99.90
42201;DHT22;27869;51.442;7.540;2023-09-18T09:47:54;22.00;99.90
42201;DHT22;27869;51.442;7.540;2023-09-18T09:50:21;22.10;99.90
42201;DHT22;27869;51.442;7.540;2023-09-18T09:52:49;22.10;99.90
42201;DHT22;27869;51.442;7.540;2023-09-18T09:55:21;22.10;99.90
42201;DHT22;27869;51.442;7.540;2023-09-18T09:57:49;22.10;99.90
42201;DHT22;27869;51.442;7.540;2023-09-18T10:00:18;22.10;99.90
42201;DHT22;27869;51.442;7.540;2023-09-18T10:03:03;22.10;99.90
42201;DHT22;27869;51.442;7.540;2023-09-18T10:05:32;22.20;99.90
42201;DHT22;27869;51.442;7.540;2023-09-18T10:08:04;22.20;99.90
42201;DHT22;27869;51.442;7.540;2023-09-18T10:10:35;22.20;99.90
42201;DHT22;27869;51.442;7.540;2023-09-18T10:13:16;22.30;99.90
42201;DHT22;27869;51.442;7.540;2023-09-18T10:15:45;22.30;99.90
42201;DHT22;27869;51.442;7.540;2023-09-18T10:18:27;22.30;99.90
42201;DHT22;27869;51.442;7.540;2023-09-18T10:20:58;22.30;99.90
42201;DHT22;27869;51.442;7.540;2023-09-18T10:23:37;22.30;99.90
42201;DHT22;27869;51.442;7.540;2023-09-18T10:26:07;22.40;99.90
42201;DHT22;27869;51.442;7.540;2023-09-18T10:28:34;22.40;99.90
42201;DHT22;27869;51.442;7.540;2023-09-18T10:31:03;22.40;99.90
42201;DHT22;27869;51.442;7.540;2023-09-18T10:33:32;22.40;99.90
42201;DHT22;27869;51.442;7.540;2023-09-18T10:35:59;22.40;99.90
42201;DHT22;27869;51.442;7.540;2023-09-18T10:38:28;22.40;99.90
42201;DHT22;27869;51.442;7.540;2023-09-18T10:40:57;22.50;99.90
42201;DHT22;27869;51.442;7.540;2023-09-18T10:43:24;22.50;99.90
42201;DHT22;27869;51.442;7.540;2023-09-18T10:45:52;22.50;99.90
42201;DHT22;27869;51.442;7.540;2023-09-18T10:48:21;22.60;99.90
42201;DHT22;27869;51.442;7.540;2023-09-18T10:50:50;22.70;99.90
42201;DHT22;27869;51.442;7.540;2023-09-18T10:53:18;22.80;99.90
42201;DHT22;27869;51.442;7.540;2023-09-18T10:55:48;22.90;99.90
42201;DHT22;27869;51.442;7.540;2023-09-18T10:58:23;23.00;99.90
42201;DHT22;27869;51.442;7.540;2023-09-18T11:00:54;23.10;99.90
42201;DHT22;27869;51.442;7.540;2023-09-18T11:03:24;23.20;99.90
42201;DHT22;27869;51.442;7.540;2023-09-18T11:06:03;23.30;99.90
42201;DHT22;27869;51.442;7.540;2023-09-18T11:08:32;23.40;99.90
42201;DHT22;27869;51.442;7.540;2023-09-18T11:10:59;23.40;99.90
42201;DHT22;27869;51.442;7.540;2023-09-18T11:13:31;23.40;99.90
42201;DHT22;27869;51.442;7.540;2023-09-18T11:16:16;23.50;99.90
42201;DHT22;27869;51.442;7.540;2023-09-18T11:18:48;23.50;99.90
42201;DHT22;27869;51.442;7.540;2023-09-18T11:21:19;23.60;99.90
42201;DHT22;27869;51.442;7.540;2023-09-18T11:23:57;23.60;99.90
42201;DHT22;27869;51.442;7.540;2023-09-18T11:26:28;23.70;99.90
42201;DHT22;27869;51.442;7.540;2023-09-18T11:28:58;23.80;99.90
42201;DHT22;27869;51.442;7.540;2023-09-18T11:31:46;23.80;99.90
42201;DHT22;27869;51.442;7.540;2023-09-18T11:34:20;23.80;99.90
42201;DHT22;27869;51.442;7.540;2023-09-18T11:36:47;23.90;99.90
42201;DHT22;27869;51.442;7.540;2023-09-18T11:39:32;23.90;99.90
42201;DHT22;27869;51.442;7.540;2023-09-18T11:42:07;24.00;99.90
42201;DHT22;27869;51.442;7.540;2023-09-18T11:44:35;24.10;99.90
42201;DHT22;27869;51.442;7.540;2023-09-18T11:47:08;24.10;99.90
42201;DHT22;27869;51.442;7.540;2023-09-18T11:49:40;24.10;99.90
42201;DHT22;27869;51.442;7.540;2023-09-18T11:52:09;24.10;99.90
42201;DHT22;27869;51.442;7.540;2023-09-18T11:54:39;24.10;99.90
42201;DHT22;27869;51.442;7.540;2023-09-18T11:57:06;24.20;99.90
42201;DHT22;27869;51.442;7.540;2023-09-18T11:59:36;24.20;99.90
42201;DHT22;27869;51.442;7.540;2023-09-18T12:02:03;24.20;99.90
42201;DHT22;27869;51.442;7.540;2023-09-18T12:04:34;24.10;99.90
42201;DHT22;27869;51.442;7.540;2023-09-18T12:07:03;24.20;99.90
42201;DHT22;27869;51.442;7.540;2023-09-18T12:09:31;24.20;99.90
42201;DHT22;27869;51.442;7.540;2023-09-18T12:11:58;24.20;99.90
42201;DHT22;27869;51.442;7.540;2023-09-18T12:14:30;24.20;99.90
42201;DHT22;27869;51.442;7.540;2023-09-18T12:16:58;24.20;99.90
42201;DHT22;27869;51.442;7.540;2023-09-18T12:19:25;24.30;99.90
42201;DHT22;27869;51.442;7.540;2023-09-18T12:21:52;24.30;99.90
42201;DHT22;27869;51.442;7.540;2023-09-18T12:24:22;24.30;99.90
42201;DHT22;27869;51.442;7.540;2023-09-18T12:26:50;24.30;99.90
42201;DHT22;27869;51.442;7.540;2023-09-18T12:29:17;24.30;99.90
42201;DHT22;27869;51.442;7.540;2023-09-18T12:31:44;24.30;99.90
42201;DHT22;27869;51.442;7.540;2023-09-18T12:34:14;24.30;99.90
42201;DHT22;27869;51.442;7.540;2023-09-18T12:36:42;24.30;99.90
42201;DHT22;27869;51.442;7.540;2023-09-18T12:39:09;24.30;99.90
42201;DHT22;27869;51.442;7.540;2023-09-18T12:41:39;24.30;99.90
42201;DHT22;27869;51.442;7.540;2023-09-18T12:44:06;24.30;99.90
42201;DHT22;27869;51.442;7.540;2023-09-18T12:46:34;24.30;99.90
42201;DHT22;27869;51.442;7.540;2023-09-18T12:49:15;24.30;99.90
42201;DHT22;27869;51.442;7.540;2023-09-18T12:51:42;24.40;99.90
42201;DHT22;27869;51.442;7.540;2023-09-18T12:54:12;24.40;99.90
42201;DHT22;27869;51.442;7.540;2023-09-18T12:56:43;24.40;99.90
42201;DHT22;27869;51.442;7.540;2023-09-18T12:59:10;24.40;99.90
42201;DHT22;27869;51.442;7.540;2023-09-18T13:01:40;24.40;99.90
42201;DHT22;27869;51.442;7.540;2023-09-18T13:04:11;24.40;99.90
42201;DHT22;27869;51.442;7.540;2023-09-18T13:06:38;24.40;99.90
42201;DHT22;27869;51.442;7.540;2023-09-18T13:09:15;24.40;99.90
42201;DHT22;27869;51.442;7.540;2023-09-18T13:11:57;24.40;99.90
42201;DHT22;27869;51.442;7.540;2023-09-18T13:14:24;24.40;99.90
42201;DHT22;27869;51.442;7.540;2023-09-18T13:16:51;24.30;99.90
42201;DHT22;27869;51.442;7.540;2023-09-18T13:19:18;24.30;99.90
42201;DHT22;27869;51.442;7.540;2023-09-18T13:21:48;24.20;99.90
42201;DHT22;27869;51.442;7.540;2023-09-18T13:24:29;24.20;99.90
42201;DHT22;27869;51.442;7.540;2023-09-18T13:26:58;24.20;99.90
42201;DHT22;27869;51.442;7.540;2023-09-18T13:29:26;24.10;99.90
42201;DHT22;27869;51.442;7.540;2023-09-18T13:31:53;24.10;99.90
42201;DHT22;27869;51.442;7.540;2023-09-18T13:34:20;24.10;99.90
42201;DHT22;27869;51.442;7.540;2023-09-18T13:36:48;24.10;99.90
42201;DHT22;27869;51.442;7.540;2023-09-18T13:39:15;24.10;99.90
42201;DHT22;27869;51.442;7.540;2023-09-18T13:41:44;24.10;99.90
42201;DHT22;27869;51.442;7.540;2023-09-18T13:44:12;24.10;99.90
42201;DHT22;27869;51.442;7.540;2023-09-18T13:46:39;24.00;99.90
42201;DHT22;27869;51.442;7.540;2023-09-18T13:49:06;24.00;99.90
42201;DHT22;27869;51.442;7.540;2023-09-18T13:51:33;24.10;99.90
42201;DHT22;27869;51.442;7.540;2023-09-18T13:54:00;24.10;99.90
42201;DHT22;27869;51.442;7.540;2023-09-18T13:56:29;24.10;99.90
42201;DHT22;27869;51.442;7.540;2023-09-18T13:58:56;24.10;99.90
42201;DHT22;27869;51.442;7.540;2023-09-18T14:01:24;24.10;99.90
42201;DHT22;27869;51.442;7.540;2023-09-18T14:03:54;24.10;99.90
42201;DHT22;27869;51.442;7.540;2023-09-18T14:06:21;24.10;99.90
42201;DHT22;27869;51.442;7.540;2023-09-18T14:08:48;24.10;99.90
42201;DHT22;27869;51.442;7.540;2023-09-18T14:11:15;24.10;99.90
42201;DHT22;27869;51.442;7.540;2023-09-18T14:13:43;24.10;99.90
42201;DHT22;27869;51.442;7.540;2023-09-18T14:16:10;24.10;99.90
42201;DHT22;27869;51.442;7.540;2023-09-18T14:18:41;24.10;99.90
42201;DHT22;27869;51.442;7.540;2023-09-18T14:21:09;24.10;99.90
42201;DHT22;27869;51.442;7.540;2023-09-18T14:23:35;24.10;99.90
42201;DHT22;27869;51.442;7.540;2023-09-18T14:26:03;24.10;99.90
42201;DHT22;27869;51.442;7.540;2023-09-18T14:28:30;24.00;99.90
42201;DHT22;27869;51.442;7.540;2023-09-18T14:30:58;24.00;99.90
42201;DHT22;27869;51.442;7.540;2023-09-18T14:33:25;23.90;99.90
42201;DHT22;27869;51.442;7.540;2023-09-18T14:35:53;23.90;99.90
42201;DHT22;27869;51.442;7.540;2023-09-18T14:38:20;23.90;99.90
42201;DHT22;27869;51.442;7.540;2023-09-18T14:40:47;23.90;99.90
42201;DHT22;27869;51.442;7.540;2023-09-18T14:43:14;23.90;99.90
42201;DHT22;27869;51.442;7.540;2023-09-18T14:45:41;23.90;99.90
42201;DHT22;27869;51.442;7.540;2023-09-18T14:48:08;23.90;99.90
42201;DHT22;27869;51.442;7.540;2023-09-18T14:50:34;23.80;99.90
42201;DHT22;27869;51.442;7.540;2023-09-18T14:53:03;23.80;99.90
42201;DHT22;27869;51.442;7.540;2023-09-18T14:55:32;23.80;99.90
42201;DHT22;27869;51.442;7.540;2023-09-18T14:58:00;23.80;99.90
42201;DHT22;27869;51.442;7.540;2023-09-18T15:00:27;23.80;99.90
42201;DHT22;27869;51.442;7.540;2023-09-18T15:02:54;23.80;99.90
42201;DHT22;27869;51.442;7.540;2023-09-18T15:05:21;23.80;99.90
42201;DHT22;27869;51.442;7.540;2023-09-18T15:07:48;23.80;99.90
42201;DHT22;27869;51.442;7.540;2023-09-18T15:10:16;23.80;99.90
42201;DHT22;27869;51.442;7.540;2023-09-18T15:12:43;23.80;99.90
42201;DHT22;27869;51.442;7.540;2023-09-18T15:15:10;23.80;99.90
42201;DHT22;27869;51.442;7.540;2023-09-18T15:17:37;23.80;99.90
42201;DHT22;27869;51.442;7.540;2023-09-18T15:20:05;23.80;99.90
42201;DHT22;27869;51.442;7.540;2023-09-18T15:22:32;23.70;99.90
42201;DHT22;27869;51.442;7.540;2023-09-18T15:24:59;23.70;99.90
42201;DHT22;27869;51.442;7.540;2023-09-18T15:27:28;23.70;99.90
42201;DHT22;27869;51.442;7.540;2023-09-18T15:29:55;23.60;99.90
42201;DHT22;27869;51.442;7.540;2023-09-18T15:32:22;23.60;99.90
42201;DHT22;27869;51.442;7.540;2023-09-18T15:34:48;23.50;99.90
42201;DHT22;27869;51.442;7.540;2023-09-18T15:37:15;23.50;99.90